Morley, Canada
Current Conditions -  °F | °C
As of 12:00 AM on Monday 24 Nov 2014 (Local Time) from CYBW Reporting Station
Clear Clear  
Wind Chill: 27°   Ceiling: Unl
Heat Index: 27°   Visibility: 9mi
Dew Point: 16°   Wind: 3mph
Humidity: 64%   Direction: 320°NW
Pressure: 29.79"   Gusts: NA
Location:  51.17°N, 114.85°W
Report Text: CYBW 240700Z AUTO 32003KT 9SM CLR M03/M09 A2979 RMK SLP138
Loading
Personal Weather Stations






























Interactive Weather Map New forecast layout! Learn more

10-Day Weather Forecast

Advertisements
Track Severe Weather on mobile